sensor_id;sensor_type;location;lat;lon;timestamp;noise_LAeq;noise_LA_min;noise_LA_max;noise_LA01;noise_LA95
77361;Laerm;66427;51.798;10.954;2023-02-28T00:02:14;29.62;27.80;36.25;;
77361;Laerm;66427;51.798;10.954;2023-02-28T00:04:42;32.65;29.53;37.49;;
77361;Laerm;66427;51.798;10.954;2023-02-28T00:07:08;30.63;28.53;34.32;;
77361;Laerm;66427;51.798;10.954;2023-02-28T00:09:34;33.69;28.20;40.34;;
77361;Laerm;66427;51.798;10.954;2023-02-28T00:11:59;28.93;27.45;33.95;;
77361;Laerm;66427;51.798;10.954;2023-02-28T00:14:29;29.95;28.10;36.10;;
77361;Laerm;66427;51.798;10.954;2023-02-28T00:16:55;52.08;27.88;69.50;;
77361;Laerm;66427;51.798;10.954;2023-02-28T00:19:21;30.20;27.91;34.37;;
77361;Laerm;66427;51.798;10.954;2023-02-28T00:21:46;30.53;27.93;40.02;;
77361;Laerm;66427;51.798;10.954;2023-02-28T00:24:12;31.47;28.18;38.63;;
77361;Laerm;66427;51.798;10.954;2023-02-28T00:26:38;31.13;28.46;36.06;;
77361;Laerm;66427;51.798;10.954;2023-02-28T00:29:04;31.62;28.35;39.47;;
77361;Laerm;66427;51.798;10.954;2023-02-28T00:31:29;34.16;28.14;49.64;;
77361;Laerm;66427;51.798;10.954;2023-02-28T00:33:55;29.43;27.90;37.42;;
77361;Laerm;66427;51.798;10.954;2023-02-28T00:36:21;32.94;28.00;47.38;;
77361;Laerm;66427;51.798;10.954;2023-02-28T00:38:47;30.13;28.10;34.90;;
77361;Laerm;66427;51.798;10.954;2023-02-28T00:41:12;30.07;28.14;34.76;;
77361;Laerm;66427;51.798;10.954;2023-02-28T00:43:38;29.12;27.82;32.00;;
77361;Laerm;66427;51.798;10.954;2023-02-28T00:46:04;30.40;28.59;34.51;;
77361;Laerm;66427;51.798;10.954;2023-02-28T00:48:30;45.20;27.95;61.09;;
77361;Laerm;66427;51.798;10.954;2023-02-28T00:50:56;28.85;27.49;33.77;;
77361;Laerm;66427;51.798;10.954;2023-02-28T00:53:21;34.75;28.72;47.26;;
77361;Laerm;66427;51.798;10.954;2023-02-28T00:55:48;50.17;28.15;65.04;;
77361;Laerm;66427;51.798;10.954;2023-02-28T00:58:14;35.40;28.61;47.88;;
77361;Laerm;66427;51.798;10.954;2023-02-28T01:00:39;33.41;28.85;41.91;;
77361;Laerm;66427;51.798;10.954;2023-02-28T01:03:05;34.27;27.70;45.92;;
77361;Laerm;66427;51.798;10.954;2023-02-28T01:05:31;28.96;27.73;35.75;;
77361;Laerm;66427;51.798;10.954;2023-02-28T01:07:57;35.44;27.51;46.93;;
77361;Laerm;66427;51.798;10.954;2023-02-28T01:10:22;35.45;27.71;47.32;;
77361;Laerm;66427;51.798;10.954;2023-02-28T01:12:48;50.69;29.40;69.11;;
77361;Laerm;66427;51.798;10.954;2023-02-28T01:15:14;37.36;29.69;46.96;;
77361;Laerm;66427;51.798;10.954;2023-02-28T01:17:39;36.07;28.90;44.92;;
77361;Laerm;66427;51.798;10.954;2023-02-28T01:20:05;32.36;27.48;40.23;;
77361;Laerm;66427;51.798;10.954;2023-02-28T01:22:31;34.97;27.98;43.05;;
77361;Laerm;66427;51.798;10.954;2023-02-28T01:24:57;37.91;32.64;47.51;;
77361;Laerm;66427;51.798;10.954;2023-02-28T01:27:23;34.41;28.89;41.17;;
77361;Laerm;66427;51.798;10.954;2023-02-28T01:29:50;33.40;29.11;42.34;;
77361;Laerm;66427;51.798;10.954;2023-02-28T01:32:16;31.82;27.87;40.70;;
77361;Laerm;66427;51.798;10.954;2023-02-28T01:34:41;30.76;28.32;36.45;;
77361;Laerm;66427;51.798;10.954;2023-02-28T01:37:07;30.68;28.23;35.60;;
77361;Laerm;66427;51.798;10.954;2023-02-28T01:39:33;32.60;27.79;41.85;;
77361;Laerm;66427;51.798;10.954;2023-02-28T01:41:58;34.73;30.75;42.70;;
77361;Laerm;66427;51.798;10.954;2023-02-28T01:47:09;29.89;27.93;35.74;;
77361;Laerm;66427;51.798;10.954;2023-02-28T01:49:35;29.25;27.90;31.58;;
77361;Laerm;66427;51.798;10.954;2023-02-28T01:52:00;29.64;28.08;32.21;;
77361;Laerm;66427;51.798;10.954;2023-02-28T01:54:27;34.65;28.84;41.80;;
77361;Laerm;66427;51.798;10.954;2023-02-28T01:56:57;37.32;34.23;40.55;;
77361;Laerm;66427;51.798;10.954;2023-02-28T01:59:27;33.43;27.56;44.66;;
77361;Laerm;66427;51.798;10.954;2023-02-28T02:01:55;33.98;28.13;43.21;;
77361;Laerm;66427;51.798;10.954;2023-02-28T02:08:43;34.32;29.13;41.17;;
77361;Laerm;66427;51.798;10.954;2023-02-28T02:11:35;32.36;28.10;43.77;;
77361;Laerm;66427;51.798;10.954;2023-02-28T02:22:55;36.39;31.10;45.88;;
77361;Laerm;66427;51.798;10.954;2023-02-28T02:35:07;35.15;30.90;43.55;;
77361;Laerm;66427;51.798;10.954;2023-02-28T02:45:18;35.70;29.94;42.09;;
77361;Laerm;66427;51.798;10.954;2023-02-28T02:48:09;33.29;29.94;38.89;;
77361;Laerm;66427;51.798;10.954;2023-02-28T02:50:47;33.26;29.83;44.72;;
77361;Laerm;66427;51.798;10.954;2023-02-28T03:44:04;39.61;36.14;45.86;;
77361;Laerm;66427;51.798;10.954;2023-02-28T03:46:38;39.81;35.77;48.69;;
77361;Laerm;66427;51.798;10.954;2023-02-28T03:49:23;48.03;35.05;62.86;;
77361;Laerm;66427;51.798;10.954;2023-02-28T03:52:49;40.67;34.77;49.61;;
77361;Laerm;66427;51.798;10.954;2023-02-28T03:56:38;41.12;35.06;51.69;;
77361;Laerm;66427;51.798;10.954;2023-02-28T04:02:35;43.04;37.35;51.40;;
77361;Laerm;66427;51.798;10.954;2023-02-28T04:12:52;48.45;39.20;64.44;;
77361;Laerm;66427;51.798;10.954;2023-02-28T04:15:42;46.83;37.94;62.78;;
77361;Laerm;66427;51.798;10.954;2023-02-28T04:18:09;42.09;37.95;49.34;;
77361;Laerm;66427;51.798;10.954;2023-02-28T04:21:11;45.10;35.94;58.70;;
77361;Laerm;66427;51.798;10.954;2023-02-28T04:24:21;42.62;36.23;57.42;;
77361;Laerm;66427;51.798;10.954;2023-02-28T04:34:07;52.33;39.66;70.37;;
77361;Laerm;66427;51.798;10.954;2023-02-28T04:36:47;44.55;40.76;52.93;;
77361;Laerm;66427;51.798;10.954;2023-02-28T04:49:06;42.31;38.91;45.87;;
77361;Laerm;66427;51.798;10.954;2023-02-28T04:51:48;50.46;39.17;67.33;;
77361;Laerm;66427;51.798;10.954;2023-02-28T04:54:29;54.86;39.08;69.72;;
77361;Laerm;66427;51.798;10.954;2023-02-28T05:05:09;51.26;37.60;68.40;;
77361;Laerm;66427;51.798;10.954;2023-02-28T05:10:29;48.06;36.51;63.82;;
77361;Laerm;66427;51.798;10.954;2023-02-28T05:13:03;47.35;38.70;62.05;;
77361;Laerm;66427;51.798;10.954;2023-02-28T05:18:54;54.78;36.78;74.73;;
77361;Laerm;66427;51.798;10.954;2023-02-28T05:28:42;49.39;37.52;63.99;;
77361;Laerm;66427;51.798;10.954;2023-02-28T05:31:18;52.57;39.04;68.53;;
77361;Laerm;66427;51.798;10.954;2023-02-28T05:33:57;60.25;39.85;77.65;;
77361;Laerm;66427;51.798;10.954;2023-02-28T05:36:55;53.96;39.34;69.00;;
77361;Laerm;66427;51.798;10.954;2023-02-28T05:39:24;51.29;38.94;67.57;;
77361;Laerm;66427;51.798;10.954;2023-02-28T05:42:16;56.29;39.21;69.89;;
77361;Laerm;66427;51.798;10.954;2023-02-28T05:44:51;52.02;38.46;66.77;;
77361;Laerm;66427;51.798;10.954;2023-02-28T05:47:48;54.33;40.96;68.26;;
77361;Laerm;66427;51.798;10.954;2023-02-28T05:53:28;60.39;39.73;78.31;;
77361;Laerm;66427;51.798;10.954;2023-02-28T05:56:32;57.80;42.94;72.81;;
77361;Laerm;66427;51.798;10.954;2023-02-28T06:01:46;54.21;41.95;67.94;;
77361;Laerm;66427;51.798;10.954;2023-02-28T06:04:47;56.51;41.52;68.82;;
77361;Laerm;66427;51.798;10.954;2023-02-28T06:07:35;55.41;40.56;71.05;;
77361;Laerm;66427;51.798;10.954;2023-02-28T06:10:26;51.60;39.33;67.59;;
77361;Laerm;66427;51.798;10.954;2023-02-28T06:13:14;52.59;41.42;66.56;;
77361;Laerm;66427;51.798;10.954;2023-02-28T06:16:48;56.38;40.55;67.42;;
77361;Laerm;66427;51.798;10.954;2023-02-28T06:19:43;58.56;42.12;68.04;;
77361;Laerm;66427;51.798;10.954;2023-02-28T06:22:24;59.46;42.43;70.74;;
77361;Laerm;66427;51.798;10.954;2023-02-28T06:25:15;64.17;44.10;81.16;;
77361;Laerm;66427;51.798;10.954;2023-02-28T06:27:51;57.45;41.87;70.97;;
77361;Laerm;66427;51.798;10.954;2023-02-28T06:30:34;59.19;42.54;71.91;;
77361;Laerm;66427;51.798;10.954;2023-02-28T06:33:30;60.75;44.22;72.14;;
77361;Laerm;66427;51.798;10.954;2023-02-28T06:35:56;60.14;44.70;75.98;;
77361;Laerm;66427;51.798;10.954;2023-02-28T06:38:23;60.61;44.22;75.59;;
77361;Laerm;66427;51.798;10.954;2023-02-28T06:40:53;59.91;43.01;72.23;;
77361;Laerm;66427;51.798;10.954;2023-02-28T06:43:23;51.99;40.86;65.00;;
77361;Laerm;66427;51.798;10.954;2023-02-28T06:46:03;55.52;40.21;67.50;;
77361;Laerm;66427;51.798;10.954;2023-02-28T06:48:34;54.39;42.00;72.37;;
77361;Laerm;66427;51.798;10.954;2023-02-28T06:51:19;59.58;41.86;76.01;;
77361;Laerm;66427;51.798;10.954;2023-02-28T06:53:58;57.45;41.00;72.71;;
77361;Laerm;66427;51.798;10.954;2023-02-28T06:56:42;59.84;39.58;78.16;;
77361;Laerm;66427;51.798;10.954;2023-02-28T06:59:10;52.61;40.66;66.84;;
77361;Laerm;66427;51.798;10.954;2023-02-28T07:01:54;55.81;41.09;69.85;;
77361;Laerm;66427;51.798;10.954;2023-02-28T07:04:37;57.22;42.77;69.91;;
77361;Laerm;66427;51.798;10.954;2023-02-28T07:07:17;59.02;39.85;71.88;;
77361;Laerm;66427;51.798;10.954;2023-02-28T07:10:06;54.75;39.51;71.17;;
77361;Laerm;66427;51.798;10.954;2023-02-28T07:13:00;54.42;40.53;67.96;;
77361;Laerm;66427;51.798;10.954;2023-02-28T07:15:43;53.69;42.92;68.90;;
77361;Laerm;66427;51.798;10.954;2023-02-28T07:21:32;54.74;39.95;67.28;;
77361;Laerm;66427;51.798;10.954;2023-02-28T07:23:58;53.71;40.49;66.62;;
77361;Laerm;66427;51.798;10.954;2023-02-28T07:26:24;51.56;40.90;68.43;;
77361;Laerm;66427;51.798;10.954;2023-02-28T07:29:10;55.25;39.59;68.66;;
77361;Laerm;66427;51.798;10.954;2023-02-28T07:31:44;53.12;39.03;66.84;;
77361;Laerm;66427;51.798;10.954;2023-02-28T07:34:11;59.23;38.06;73.55;;
77361;Laerm;66427;51.798;10.954;2023-02-28T07:36:54;55.85;37.46;68.35;;
77361;Laerm;66427;51.798;10.954;2023-02-28T07:39:20;46.86;36.58;60.87;;
77361;Laerm;66427;51.798;10.954;2023-02-28T07:41:48;41.23;35.88;54.15;;
77361;Laerm;66427;51.798;10.954;2023-02-28T07:44:14;53.68;36.38;66.43;;
77361;Laerm;66427;51.798;10.954;2023-02-28T07:46:40;55.30;38.28;70.04;;
77361;Laerm;66427;51.798;10.954;2023-02-28T07:49:08;53.66;37.23;65.81;;
77361;Laerm;66427;51.798;10.954;2023-02-28T07:51:34;55.51;35.31;69.67;;
77361;Laerm;66427;51.798;10.954;2023-02-28T07:54:02;57.28;36.08;72.73;;
77361;Laerm;66427;51.798;10.954;2023-02-28T07:56:28;56.63;36.22;71.43;;
77361;Laerm;66427;51.798;10.954;2023-02-28T07:58:54;56.06;37.24;71.14;;
77361;Laerm;66427;51.798;10.954;2023-02-28T08:01:20;44.48;37.38;56.48;;
77361;Laerm;66427;51.798;10.954;2023-02-28T08:03:47;52.32;37.81;69.46;;
77361;Laerm;66427;51.798;10.954;2023-02-28T08:06:17;48.88;36.56;64.00;;
77361;Laerm;66427;51.798;10.954;2023-02-28T08:08:44;54.77;36.59;66.13;;
77361;Laerm;66427;51.798;10.954;2023-02-28T08:11:10;53.57;37.48;70.22;;
77361;Laerm;66427;51.798;10.954;2023-02-28T08:13:37;56.14;37.99;67.54;;
77361;Laerm;66427;51.798;10.954;2023-02-28T08:16:03;58.16;37.90;70.57;;
77361;Laerm;66427;51.798;10.954;2023-02-28T08:18:29;58.78;38.41;70.30;;
77361;Laerm;66427;51.798;10.954;2023-02-28T08:20:55;55.27;37.69;67.16;;
77361;Laerm;66427;51.798;10.954;2023-02-28T08:23:23;54.11;38.21;65.55;;
77361;Laerm;66427;51.798;10.954;2023-02-28T08:25:52;57.57;37.85;74.46;;
77361;Laerm;66427;51.798;10.954;2023-02-28T08:28:18;50.40;39.96;63.75;;
77361;Laerm;66427;51.798;10.954;2023-02-28T08:30:46;55.92;39.09;68.96;;
77361;Laerm;66427;51.798;10.954;2023-02-28T08:33:12;59.73;40.86;73.31;;
77361;Laerm;66427;51.798;10.954;2023-02-28T08:35:38;53.33;38.24;65.35;;
77361;Laerm;66427;51.798;10.954;2023-02-28T08:38:04;56.05;38.15;69.73;;
77361;Laerm;66427;51.798;10.954;2023-02-28T08:40:30;55.95;37.39;67.23;;
77361;Laerm;66427;51.798;10.954;2023-02-28T08:42:58;60.14;39.54;76.65;;
77361;Laerm;66427;51.798;10.954;2023-02-28T08:45:25;54.71;37.92;69.53;;
77361;Laerm;66427;51.798;10.954;2023-02-28T08:47:51;51.70;37.43;66.06;;
77361;Laerm;66427;51.798;10.954;2023-02-28T08:50:17;54.51;37.95;69.21;;
77361;Laerm;66427;51.798;10.954;2023-02-28T08:52:44;52.91;37.96;65.43;;
77361;Laerm;66427;51.798;10.954;2023-02-28T08:55:20;57.18;36.87;70.67;;
77361;Laerm;66427;51.798;10.954;2023-02-28T08:57:51;54.65;40.70;67.53;;
77361;Laerm;66427;51.798;10.954;2023-02-28T09:00:18;55.30;39.17;68.89;;
77361;Laerm;66427;51.798;10.954;2023-02-28T09:02:44;55.13;41.30;68.09;;
77361;Laerm;66427;51.798;10.954;2023-02-28T09:05:15;53.97;37.53;68.86;;
77361;Laerm;66427;51.798;10.954;2023-02-28T09:07:41;56.68;38.59;70.97;;
77361;Laerm;66427;51.798;10.954;2023-02-28T09:10:08;54.42;39.62;67.27;;
77361;Laerm;66427;51.798;10.954;2023-02-28T09:12:34;53.05;38.24;66.51;;
77361;Laerm;66427;51.798;10.954;2023-02-28T09:15:00;48.93;36.35;64.11;;
77361;Laerm;66427;51.798;10.954;2023-02-28T09:17:27;54.93;38.33;67.44;;
77361;Laerm;66427;51.798;10.954;2023-02-28T09:20:11;56.84;37.49;70.88;;
77361;Laerm;66427;51.798;10.954;2023-02-28T09:22:53;54.97;38.28;69.01;;
77361;Laerm;66427;51.798;10.954;2023-02-28T09:25:19;58.31;38.61;72.78;;
77361;Laerm;66427;51.798;10.954;2023-02-28T09:27:57;54.30;38.89;67.37;;
77361;Laerm;66427;51.798;10.954;2023-02-28T09:30:48;53.69;38.46;64.42;;
77361;Laerm;66427;51.798;10.954;2023-02-28T09:33:25;58.86;42.60;74.13;;
77361;Laerm;66427;51.798;10.954;2023-02-28T09:36:09;55.20;40.36;68.34;;
77361;Laerm;66427;51.798;10.954;2023-02-28T09:39:03;58.60;39.37;71.12;;
77361;Laerm;66427;51.798;10.954;2023-02-28T09:44:35;53.99;36.96;67.34;;
77361;Laerm;66427;51.798;10.954;2023-02-28T09:47:50;52.74;38.33;70.28;;
77361;Laerm;66427;51.798;10.954;2023-02-28T09:56:12;55.27;38.94;70.09;;
77361;Laerm;66427;51.798;10.954;2023-02-28T10:02:13;56.02;39.06;76.68;;
77361;Laerm;66427;51.798;10.954;2023-02-28T10:04:53;62.25;40.56;77.44;;
77361;Laerm;66427;51.798;10.954;2023-02-28T10:09:53;60.86;42.09;78.00;;
77361;Laerm;66427;51.798;10.954;2023-02-28T10:12:20;62.83;42.87;83.22;;
77361;Laerm;66427;51.798;10.954;2023-02-28T10:14:53;49.97;41.63;65.32;;
77361;Laerm;66427;51.798;10.954;2023-02-28T10:17:22;53.80;41.41;64.86;;
77361;Laerm;66427;51.798;10.954;2023-02-28T10:19:58;58.93;40.86;70.28;;
77361;Laerm;66427;51.798;10.954;2023-02-28T10:22:26;59.38;39.69;75.02;;
77361;Laerm;66427;51.798;10.954;2023-02-28T10:24:55;55.80;41.79;65.07;;
77361;Laerm;66427;51.798;10.954;2023-02-28T10:27:31;57.74;39.91;72.29;;
77361;Laerm;66427;51.798;10.954;2023-02-28T10:29:59;55.30;40.90;68.43;;
77361;Laerm;66427;51.798;10.954;2023-02-28T10:32:32;55.83;40.75;65.39;;
77361;Laerm;66427;51.798;10.954;2023-02-28T10:37:37;57.35;41.96;70.03;;
77361;Laerm;66427;51.798;10.954;2023-02-28T10:40:04;56.54;39.32;70.93;;
77361;Laerm;66427;51.798;10.954;2023-02-28T10:42:30;55.01;40.41;67.56;;
77361;Laerm;66427;51.798;10.954;2023-02-28T10:45:11;55.81;41.87;69.73;;
77361;Laerm;66427;51.798;10.954;2023-02-28T10:47:40;57.23;43.32;69.64;;
77361;Laerm;66427;51.798;10.954;2023-02-28T10:50:26;54.91;39.99;67.66;;
77361;Laerm;66427;51.798;10.954;2023-02-28T10:52:52;55.04;39.59;67.63;;
77361;Laerm;66427;51.798;10.954;2023-02-28T10:55:23;55.10;38.45;67.71;;
77361;Laerm;66427;51.798;10.954;2023-02-28T10:58:20;57.65;41.35;73.26;;
77361;Laerm;66427;51.798;10.954;2023-02-28T11:00:46;52.72;40.65;68.26;;
77361;Laerm;66427;51.798;10.954;2023-02-28T11:03:24;53.37;40.87;66.70;;
77361;Laerm;66427;51.798;10.954;2023-02-28T11:05:50;58.07;43.95;67.48;;
77361;Laerm;66427;51.798;10.954;2023-02-28T11:08:17;61.72;43.87;75.93;;
77361;Laerm;66427;51.798;10.954;2023-02-28T11:13:57;56.01;42.70;68.74;;
77361;Laerm;66427;51.798;10.954;2023-02-28T11:16:38;55.21;40.88;68.82;;
77361;Laerm;66427;51.798;10.954;2023-02-28T11:19:19;52.08;40.60;64.49;;
77361;Laerm;66427;51.798;10.954;2023-02-28T11:21:59;56.19;42.03;68.70;;
77361;Laerm;66427;51.798;10.954;2023-02-28T11:25:16;57.37;40.71;68.45;;
77361;Laerm;66427;51.798;10.954;2023-02-28T11:27:56;53.79;39.82;66.83;;
77361;Laerm;66427;51.798;10.954;2023-02-28T11:30:25;52.80;40.21;65.44;;
77361;Laerm;66427;51.798;10.954;2023-02-28T11:33:29;54.04;40.37;68.25;;
77361;Laerm;66427;51.798;10.954;2023-02-28T11:40:00;53.28;38.60;66.90;;
77361;Laerm;66427;51.798;10.954;2023-02-28T11:46:14;55.95;41.28;67.17;;
77361;Laerm;66427;51.798;10.954;2023-02-28T11:49:32;55.99;39.77;68.96;;
77361;Laerm;66427;51.798;10.954;2023-02-28T11:52:48;58.26;40.71;70.06;;
77361;Laerm;66427;51.798;10.954;2023-02-28T12:06:05;56.06;41.86;72.60;;
77361;Laerm;66427;51.798;10.954;2023-02-28T12:12:23;56.50;41.11;71.27;;
77361;Laerm;66427;51.798;10.954;2023-02-28T12:15:19;52.21;38.82;65.22;;
77361;Laerm;66427;51.798;10.954;2023-02-28T12:34:14;56.47;40.50;69.54;;
77361;Laerm;66427;51.798;10.954;2023-02-28T12:36:56;54.98;41.70;66.52;;
77361;Laerm;66427;51.798;10.954;2023-02-28T12:39:45;55.49;40.85;68.40;;
77361;Laerm;66427;51.798;10.954;2023-02-28T12:48:40;58.05;39.80;73.51;;
77361;Laerm;66427;51.798;10.954;2023-02-28T12:54:34;60.24;43.41;74.02;;
77361;Laerm;66427;51.798;10.954;2023-02-28T13:03:51;53.51;42.31;67.24;;
77361;Laerm;66427;51.798;10.954;2023-02-28T13:09:50;54.04;40.22;65.98;;
77361;Laerm;66427;51.798;10.954;2023-02-28T13:12:54;56.47;40.90;70.55;;
77361;Laerm;66427;51.798;10.954;2023-02-28T13:16:14;55.22;40.20;67.56;;
77361;Laerm;66427;51.798;10.954;2023-02-28T13:19:15;61.42;41.52;90.47;;
77361;Laerm;66427;51.798;10.954;2023-02-28T13:25:01;58.42;38.75;75.16;;
77361;Laerm;66427;51.798;10.954;2023-02-28T13:41:21;54.95;40.97;70.97;;
77361;Laerm;66427;51.798;10.954;2023-02-28T13:50:29;55.04;40.70;67.01;;
77361;Laerm;66427;51.798;10.954;2023-02-28T13:53:14;52.08;39.85;64.10;;
77361;Laerm;66427;51.798;10.954;2023-02-28T14:06:28;55.37;39.37;66.38;;
77361;Laerm;66427;51.798;10.954;2023-02-28T14:50:05;56.32;41.14;77.56;;
77361;Laerm;66427;51.798;10.954;2023-02-28T14:53:03;57.45;42.31;68.00;;
77361;Laerm;66427;51.798;10.954;2023-02-28T15:03:40;52.79;44.22;68.67;;
77361;Laerm;66427;51.798;10.954;2023-02-28T15:10:27;58.18;40.88;67.81;;
77361;Laerm;66427;51.798;10.954;2023-02-28T15:39:31;55.90;42.82;68.80;;
77361;Laerm;66427;51.798;10.954;2023-02-28T16:00:33;57.99;39.12;67.00;;
77361;Laerm;66427;51.798;10.954;2023-02-28T16:03:59;57.81;41.64;73.09;;
77361;Laerm;66427;51.798;10.954;2023-02-28T16:14:20;57.10;41.47;74.26;;
77361;Laerm;66427;51.798;10.954;2023-02-28T16:20:51;57.41;39.62;71.37;;
77361;Laerm;66427;51.798;10.954;2023-02-28T16:28:00;58.32;40.86;74.63;;
77361;Laerm;66427;51.798;10.954;2023-02-28T16:30:54;58.31;42.72;69.68;;
77361;Laerm;66427;51.798;10.954;2023-02-28T16:33:21;56.91;42.33;71.70;;
77361;Laerm;66427;51.798;10.954;2023-02-28T16:42:43;57.82;41.70;71.60;;
77361;Laerm;66427;51.798;10.954;2023-02-28T16:49:19;54.43;41.49;66.66;;
77361;Laerm;66427;51.798;10.954;2023-02-28T16:52:47;56.22;44.00;68.68;;
77361;Laerm;66427;51.798;10.954;2023-02-28T16:59:18;59.81;43.17;78.61;;
77361;Laerm;66427;51.798;10.954;2023-02-28T17:09:33;57.07;40.78;68.67;;
77361;Laerm;66427;51.798;10.954;2023-02-28T17:37:26;54.87;42.60;70.05;;
77361;Laerm;66427;51.798;10.954;2023-02-28T17:40:36;55.31;41.02;68.64;;
77361;Laerm;66427;51.798;10.954;2023-02-28T17:43:44;53.31;40.77;65.06;;
77361;Laerm;66427;51.798;10.954;2023-02-28T17:46:42;54.69;41.90;66.02;;
77361;Laerm;66427;51.798;10.954;2023-02-28T17:49:17;51.27;39.20;65.30;;
77361;Laerm;66427;51.798;10.954;2023-02-28T17:52:33;51.97;40.41;65.44;;
77361;Laerm;66427;51.798;10.954;2023-02-28T17:59:15;56.82;43.86;67.39;;
77361;Laerm;66427;51.798;10.954;2023-02-28T18:02:26;51.19;41.20;65.26;;
77361;Laerm;66427;51.798;10.954;2023-02-28T18:05:34;60.40;42.41;80.39;;
77361;Laerm;66427;51.798;10.954;2023-02-28T18:12:24;49.10;40.41;63.43;;
77361;Laerm;66427;51.798;10.954;2023-02-28T18:15:36;53.82;40.52;70.11;;
77361;Laerm;66427;51.798;10.954;2023-02-28T18:21:38;57.27;39.92;74.79;;
77361;Laerm;66427;51.798;10.954;2023-02-28T18:28:07;49.92;38.35;63.55;;
77361;Laerm;66427;51.798;10.954;2023-02-28T18:31:08;47.09;38.61;61.61;;
77361;Laerm;66427;51.798;10.954;2023-02-28T18:36:27;50.12;39.22;64.05;;
77361;Laerm;66427;51.798;10.954;2023-02-28T18:39:40;50.53;39.66;66.29;;
77361;Laerm;66427;51.798;10.954;2023-02-28T18:45:33;54.26;39.90;68.54;;
77361;Laerm;66427;51.798;10.954;2023-02-28T18:48:07;46.74;39.69;60.20;;
77361;Laerm;66427;51.798;10.954;2023-02-28T18:55:23;52.01;39.20;67.34;;
77361;Laerm;66427;51.798;10.954;2023-02-28T18:58:26;45.46;39.26;61.33;;
77361;Laerm;66427;51.798;10.954;2023-02-28T19:05:35;51.09;38.13;66.01;;
77361;Laerm;66427;51.798;10.954;2023-02-28T19:08:22;49.92;40.27;66.88;;
77361;Laerm;66427;51.798;10.954;2023-02-28T19:11:27;53.60;40.82;67.31;;
77361;Laerm;66427;51.798;10.954;2023-02-28T19:18:13;48.90;36.09;62.55;;
77361;Laerm;66427;51.798;10.954;2023-02-28T19:24:35;54.08;44.43;71.15;;
77361;Laerm;66427;51.798;10.954;2023-02-28T19:27:39;50.35;38.18;66.49;;
77361;Laerm;66427;51.798;10.954;2023-02-28T19:30:31;49.36;38.60;64.17;;
77361;Laerm;66427;51.798;10.954;2023-02-28T19:37:17;44.41;37.96;55.83;;
77361;Laerm;66427;51.798;10.954;2023-02-28T19:40:29;51.28;39.36;67.24;;
77361;Laerm;66427;51.798;10.954;2023-02-28T19:54:42;42.76;37.77;55.91;;
77361;Laerm;66427;51.798;10.954;2023-02-28T19:57:19;57.81;40.29;74.86;;
77361;Laerm;66427;51.798;10.954;2023-02-28T20:01:12;52.75;34.46;69.46;;
77361;Laerm;66427;51.798;10.954;2023-02-28T20:08:00;44.13;37.34;63.54;;
77361;Laerm;66427;51.798;10.954;2023-02-28T20:10:51;51.63;39.97;70.45;;
77361;Laerm;66427;51.798;10.954;2023-02-28T20:16:38;48.87;39.32;63.17;;
77361;Laerm;66427;51.798;10.954;2023-02-28T20:39:19;51.82;39.50;66.50;;
77361;Laerm;66427;51.798;10.954;2023-02-28T20:41:44;41.68;36.45;49.47;;
77361;Laerm;66427;51.798;10.954;2023-02-28T20:44:13;45.14;37.48;51.97;;
77361;Laerm;66427;51.798;10.954;2023-02-28T20:46:39;51.70;41.07;60.05;;
77361;Laerm;66427;51.798;10.954;2023-02-28T20:49:07;42.98;36.53;49.78;;
77361;Laerm;66427;51.798;10.954;2023-02-28T20:51:35;38.94;32.38;46.70;;
77361;Laerm;66427;51.798;10.954;2023-02-28T20:54:06;40.51;35.81;49.02;;
77361;Laerm;66427;51.798;10.954;2023-02-28T20:56:33;41.46;35.95;47.46;;
77361;Laerm;66427;51.798;10.954;2023-02-28T20:58:59;49.05;37.74;63.39;;
77361;Laerm;66427;51.798;10.954;2023-02-28T21:01:26;50.07;35.80;65.83;;
77361;Laerm;66427;51.798;10.954;2023-02-28T21:03:53;50.87;34.02;67.51;;
77361;Laerm;66427;51.798;10.954;2023-02-28T21:06:21;47.82;38.10;60.24;;
77361;Laerm;66427;51.798;10.954;2023-02-28T21:08:48;47.77;32.09;64.45;;
77361;Laerm;66427;51.798;10.954;2023-02-28T21:11:15;39.33;32.91;44.59;;
77361;Laerm;66427;51.798;10.954;2023-02-28T21:13:42;39.76;32.43;50.04;;
77361;Laerm;66427;51.798;10.954;2023-02-28T21:16:10;48.65;35.50;61.09;;
77361;Laerm;66427;51.798;10.954;2023-02-28T21:18:36;46.19;32.62;59.27;;
77361;Laerm;66427;51.798;10.954;2023-02-28T21:21:03;47.58;31.09;67.27;;
77361;Laerm;66427;51.798;10.954;2023-02-28T21:23:30;54.63;34.40;70.15;;
77361;Laerm;66427;51.798;10.954;2023-02-28T21:26:06;37.08;32.77;43.04;;
77361;Laerm;66427;51.798;10.954;2023-02-28T21:28:33;39.35;33.22;54.42;;
77361;Laerm;66427;51.798;10.954;2023-02-28T21:31:06;40.60;32.45;46.78;;
77361;Laerm;66427;51.798;10.954;2023-02-28T21:33:35;39.76;34.37;51.51;;
77361;Laerm;66427;51.798;10.954;2023-02-28T21:36:06;45.31;34.25;57.83;;
77361;Laerm;66427;51.798;10.954;2023-02-28T21:38:33;39.33;34.22;48.84;;
77361;Laerm;66427;51.798;10.954;2023-02-28T21:41:03;50.32;34.60;68.10;;
77361;Laerm;66427;51.798;10.954;2023-02-28T21:43:30;45.97;32.83;60.06;;
77361;Laerm;66427;51.798;10.954;2023-02-28T21:45:59;51.18;31.16;69.00;;
77361;Laerm;66427;51.798;10.954;2023-02-28T21:48:25;40.51;30.84;50.45;;
77361;Laerm;66427;51.798;10.954;2023-02-28T21:50:58;38.16;32.62;45.60;;
77361;Laerm;66427;51.798;10.954;2023-02-28T21:53:25;37.28;32.33;44.12;;
77361;Laerm;66427;51.798;10.954;2023-02-28T21:55:51;37.75;32.18;46.98;;
77361;Laerm;66427;51.798;10.954;2023-02-28T21:58:18;37.77;31.42;44.75;;
77361;Laerm;66427;51.798;10.954;2023-02-28T22:00:45;35.75;30.86;43.13;;
77361;Laerm;66427;51.798;10.954;2023-02-28T22:03:14;39.30;31.98;48.30;;
77361;Laerm;66427;51.798;10.954;2023-02-28T22:05:40;38.94;32.17;50.66;;
77361;Laerm;66427;51.798;10.954;2023-02-28T22:08:10;36.16;30.78;44.39;;
77361;Laerm;66427;51.798;10.954;2023-02-28T22:10:36;34.57;30.27;40.39;;
77361;Laerm;66427;51.798;10.954;2023-02-28T22:13:02;58.57;30.96;77.69;;
77361;Laerm;66427;51.798;10.954;2023-02-28T22:15:29;35.13;29.90;42.72;;
77361;Laerm;66427;51.798;10.954;2023-02-28T22:17:56;47.84;33.23;63.37;;
77361;Laerm;66427;51.798;10.954;2023-02-28T22:20:23;35.69;31.38;41.70;;
77361;Laerm;66427;51.798;10.954;2023-02-28T22:22:49;37.08;31.59;42.18;;
77361;Laerm;66427;51.798;10.954;2023-02-28T22:25:15;37.78;31.00;45.60;;
77361;Laerm;66427;51.798;10.954;2023-02-28T22:27:41;33.51;27.97;40.39;;
77361;Laerm;66427;51.798;10.954;2023-02-28T22:30:08;48.23;34.19;63.42;;
77361;Laerm;66427;51.798;10.954;2023-02-28T22:32:34;45.77;30.60;60.40;;
77361;Laerm;66427;51.798;10.954;2023-02-28T22:35:00;37.62;28.84;47.64;;
77361;Laerm;66427;51.798;10.954;2023-02-28T22:37:26;34.54;29.21;42.40;;
77361;Laerm;66427;51.798;10.954;2023-02-28T22:39:52;36.00;28.46;43.49;;
77361;Laerm;66427;51.798;10.954;2023-02-28T22:42:19;35.02;29.81;43.01;;